Willow Run Airport
KYIP : now visible

Airfield :











YOU CAN JOIN US ON...

 
LOGIN :

Register | Disclaimer

   EN    FR    IT 

 









Legend :    VFR   Marginal VFR   IFR   Intensive IFR   Very Intensive IFR
Visi :
Ceiling :
>= 8 km
>= 3000ft
5 to 8 km
1000 to 3000 ft
1500m to 5 km
500 to 1000 ft
800 to 1500m
200 to 500 ft
< 800m
< 200 ft
Symbols :   Thunderstorms  Fog  Heavy snow  Heavy precipitations  Wind > 20 kt






- Airport Elevation : 716 ft
- IATA code : YIP


KYIP - Willow Run

CURRENT METAR :
  • 290607Z 09007KT 10SM OVC004 09/07 A2967 RMK AO2 PRESFR T00940072

EXPIRED METARs :
  • 290553Z 10009KT 10SM OVC005 09/07 A2969 RMK AO2 RAE34 SLP055 P0006 60026 T00940072 10111 20094 58017
  • 290453Z 11013KT 9SM -RA BKN005 BKN020 OVC035 10/07 A2973 RMK AO2 LTG DSNT ALQDS TSB0356E11B20E45 SLP067 P0020 T01000072 401170061
  • 290435Z 11014G19KT 3SM TSRA BR BKN005 OVC017 10/08 A2975 RMK AO2 LTG DSNT ALQDS TSB0356E11B20 P0018 T01000078
  • 290412Z 11013KT 3SM VCTS RA BR OVC002 10/08 A2974 RMK AO2 LTG DSNT SE-W TSB0356E11 P0002 T01000078
  • 290402Z 09011KT 2 1/2SM -TSRA BR OVC002 10/08 A2973 RMK AO2 LTG DSNT ALQDS TSB0356 P0001 T01000078

TAF KYIP
Valid from the 29 at 06:00 until the 30 at 06:00 UTC


290540Z 2906/3006 10012KT 5SM BR OVC005
TEMPO 2906/2909 2SM SHRA BR OVC004
FM291200 19010KT 6SM BR OVC008
FM291400 22016G28KT P6SM SCT025 BKN040
FM291700 24022G34KT P6SM -SHRA BKN028 OVC045



MET'MAP, your aeronautical weather chart ! - Copyright ORBIFLY December 2007 - Disclaimer

ORBIFLY MET'MAP TEAM :

Programming & Development : Alexandra Zaïnal
Concept & original design : Baudouin d'Aumeries
Assistance for programming : Marc-Olivier Méhu
Technical & hardware support : Manuel Goepfert

Contact : metmap@orbifly.com




SOURCES & CREDITS :

   NOAA       Earth
Advisory